Time;durP1;ratioP1;P1;durP2;ratioP2;P2;SDS_P1;SDS_P2;PMS_P1;PMS_P2;Temp;Humidity;BMP_temperature;BMP_pressure;BME280_temperature;BME280_humidity;BME280_pressure;Samples;Min_cycle;Max_cycle;Signal;HPM_P1;HPM_P2
2022/12/20 00:01:54;;;;;;;18.63;11.45;;;;;;;4.09;100.00;100647.47;6158095;28;20039;-89
2022/12/20 00:04:56;;;;;;;20.73;11.13;;;;;;;4.10;100.00;100648.31;6158182;28;20050;-89
2022/12/20 00:07:57;;;;;;;20.00;11.07;;;;;;;4.09;100.00;100660.28;6157222;28;20454;-89
2022/12/20 00:11:00;;;;;;;21.67;11.40;;;;;;;4.07;100.00;100653.56;6163003;28;20039;-89
2022/12/20 00:14:02;;;;;;;21.98;11.60;;;;;;;4.13;100.00;100655.03;6158953;28;20085;-89
2022/12/20 00:17:04;;;;;;;21.55;12.18;;;;;;;4.16;100.00;100648.00;6171177;28;20047;-89
2022/12/20 00:20:06;;;;;;;19.73;10.90;;;;;;;4.17;100.00;100654.78;6155090;28;20065;-89
2022/12/20 00:23:08;;;;;;;20.73;11.65;;;;;;;4.18;100.00;100647.94;6173670;28;20093;-89
2022/12/20 00:26:12;;;;;;;19.60;11.35;;;;;;;4.20;100.00;100656.34;6145630;28;20393;-89
2022/12/20 00:29:14;;;;;;;21.92;11.45;;;;;;;4.15;100.00;100642.94;6144998;28;20587;-89
2022/12/20 00:32:16;;;;;;;18.75;11.25;;;;;;;4.19;100.00;100652.97;6153339;28;20081;-89
2022/12/20 00:35:18;;;;;;;21.05;11.65;;;;;;;4.11;100.00;100644.84;6159429;28;20043;-89
2022/12/20 00:38:19;;;;;;;22.15;11.23;;;;;;;4.14;100.00;100654.09;6164369;28;20043;-89
2022/12/20 00:41:25;;;;;;;20.05;12.35;;;;;;;4.18;100.00;100642.81;6163018;28;20050;-89
2022/12/20 00:44:27;;;;;;;16.10;10.73;;;;;;;4.17;100.00;100641.13;6158823;28;20035;-89
2022/12/20 00:47:29;;;;;;;19.70;10.57;;;;;;;4.22;100.00;100634.03;6161298;28;20034;-89
2022/12/20 00:50:31;;;;;;;20.70;11.18;;;;;;;4.26;100.00;100622.75;6161522;28;20034;-89
2022/12/20 00:53:33;;;;;;;19.75;11.18;;;;;;;4.24;100.00;100627.13;6152562;28;20493;-89
2022/12/20 00:56:35;;;;;;;20.42;11.02;;;;;;;4.19;100.00;100614.53;6175140;28;20046;-89
2022/12/20 00:59:37;;;;;;;19.83;10.95;;;;;;;4.21;100.00;100627.28;6160532;28;20047;-89
2022/12/20 01:02:39;;;;;;;18.10;9.80;;;;;;;4.29;100.00;100617.47;6162342;28;20559;-89
2022/12/20 01:05:52;;;;;;;21.52;11.07;;;;;;;4.27;100.00;100622.69;6160954;28;20134;-88
2022/12/20 01:08:55;;;;;;;21.85;10.63;;;;;;;4.32;100.00;100614.72;6161731;28;20057;-89
2022/12/20 01:11:56;;;;;;;19.90;11.13;;;;;;;4.32;100.00;100614.72;6162872;28;20043;-89
2022/12/20 01:14:58;;;;;;;19.13;10.38;;;;;;;4.31;100.00;100631.84;6162917;28;20096;-89
2022/12/20 01:18:00;;;;;;;22.17;11.52;;;;;;;4.40;100.00;100627.19;6158693;28;20050;-88
2022/12/20 01:21:06;;;;;;;20.50;10.85;;;;;;;4.46;100.00;100629.41;6146260;28;20146;-89
2022/12/20 01:24:08;;;;;;;17.52;11.00;;;;;;;4.42;100.00;100617.66;6168089;28;20051;-89
2022/12/20 01:27:09;;;;;;;17.95;10.30;;;;;;;4.48;100.00;100615.59;6164943;28;20055;-89
2022/12/20 01:30:11;;;;;;;20.30;10.38;;;;;;;4.52;100.00;100627.38;6143219;28;20074;-89
2022/12/20 01:33:14;;;;;;;18.23;10.75;;;;;;;4.60;100.00;100631.28;6157147;28;20344;-89
2022/12/20 01:36:19;;;;;;;17.85;10.75;;;;;;;4.63;100.00;100616.53;6174104;28;20085;-89
2022/12/20 01:39:21;;;;;;;16.52;10.35;;;;;;;4.65;100.00;100614.72;6149836;28;20046;-89
2022/12/20 01:42:22;;;;;;;19.30;10.50;;;;;;;4.67;100.00;100612.06;6160052;28;20043;-88
2022/12/20 01:45:30;;;;;;;19.98;11.00;;;;;;;4.74;100.00;100606.56;6159031;28;20055;-89
2022/12/20 01:48:32;;;;;;;19.13;9.70;;;;;;;4.80;100.00;100610.53;6160466;28;20054;-89
2022/12/20 01:51:38;;;;;;;18.05;9.98;;;;;;;4.88;100.00;100610.94;6174902;28;20517;-89
2022/12/20 01:54:50;;;;;;;16.42;9.77;;;;;;;4.88;100.00;100610.94;6160557;28;20066;-89
2022/12/20 01:58:13;;;;;;;20.85;10.63;;;;;;;4.96;100.00;100605.38;6157388;28;20053;-89
2022/12/20 02:01:15;;;;;;;15.57;9.90;;;;;;;5.03;100.00;100598.19;6174646;28;20409;-89
2022/12/20 02:04:17;;;;;;;22.30;11.13;;;;;;;5.04;100.00;100592.13;6155858;28;20061;-89
2022/12/20 02:07:30;;;;;;;19.02;10.57;;;;;;;5.04;100.00;100589.56;6159194;28;20112;-89
2022/12/20 02:10:50;;;;;;;18.55;11.32;;;;;;;5.03;100.00;100596.44;6157310;28;20057;-89
2022/12/20 02:14:07;;;;;;;17.42;9.77;;;;;;;5.11;100.00;100586.59;6176113;28;20065;-89
2022/12/20 02:17:16;;;;;;;17.42;9.98;;;;;;;5.15;100.00;100598.34;6157869;28;20058;-89
2022/12/20 02:20:38;;;;;;;21.50;10.70;;;;;;;5.22;100.00;100598.84;6163909;28;20569;-89
2022/12/20 02:23:59;;;;;;;18.08;10.07;;;;;;;5.33;100.00;100593.09;6152255;28;20130;-89
2022/12/20 02:27:21;;;;;;;;;;;;;;;5.43;100.00;100585.72;6157847;28;20042;-89
2022/12/20 02:30:30;;;;;;;19.38;10.05;;;;;;;5.50;100.00;100563.91;6157157;28;19926;-88
2022/12/20 02:33:32;;;;;;;17.25;9.65;;;;;;;5.46;100.00;100552.97;6170166;28;20489;-89
2022/12/20 02:36:34;;;;;;;17.85;9.70;;;;;;;5.46;100.00;100563.25;6159827;28;20031;-89
2022/12/20 02:39:39;;;;;;;17.27;9.45;;;;;;;5.48;100.00;100568.31;6158359;28;20431;-89
2022/12/20 02:42:42;;;;;;;16.33;9.50;;;;;;;5.55;100.00;100574.75;6176611;28;20067;-89
2022/12/20 02:45:45;;;;;;;20.02;10.27;;;;;;;5.54;100.00;100571.34;6171783;28;20754;-89
2022/12/20 02:48:48;;;;;;;18.73;9.95;;;;;;;5.50;100.00;100579.31;6160348;28;20035;-89
2022/12/20 02:51:53;;;;;;;17.55;9.85;;;;;;;5.51;100.00;100596.34;6175504;28;20058;-89
2022/12/20 02:54:56;;;;;;;16.80;9.80;;;;;;;5.45;100.00;100599.28;6157886;28;20588;-89
2022/12/20 02:58:04;;;;;;;17.40;10.13;;;;;;;5.32;100.00;100594.03;6158801;28;20129;-89
2022/12/20 03:01:22;;;;;;;19.67;10.18;;;;;;;5.21;100.00;100612.56;6158039;28;20183;-89
2022/12/20 03:04:27;;;;;;;17.48;9.85;;;;;;;5.16;100.00;100605.09;6160127;28;20186;-89
2022/12/20 03:07:33;;;;;;;17.00;10.18;;;;;;;5.16;100.00;100617.94;6175819;28;21178;-89
2022/12/20 03:10:37;;;;;;;16.17;9.48;;;;;;;5.10;100.00;100610.59;6176124;28;20079;-89
2022/12/20 03:13:48;;;;;;;18.05;9.23;;;;;;;5.06;100.00;100598.00;6172706;28;20058;-89
2022/12/20 03:17:06;;;;;;;16.08;9.13;;;;;;;5.05;100.00;100601.50;6160737;28;20627;-89
2022/12/20 03:20:10;;;;;;;18.10;9.15;;;;;;;5.03;100.00;100606.72;6146529;28;20096;-89
2022/12/20 03:23:12;;;;;;;20.75;10.50;;;;;;;5.00;100.00;100591.50;6167054;28;20054;-89
2022/12/20 03:26:14;;;;;;;16.73;9.88;;;;;;;5.05;100.00;100588.69;6154512;28;20046;-89
2022/12/20 03:29:21;;;;;;;16.88;9.93;;;;;;;5.13;100.00;100583.94;6157126;28;20043;-89
2022/12/20 03:32:22;;;;;;;17.75;10.05;;;;;;;5.13;100.00;100581.38;6175865;28;20166;-88
2022/12/20 03:35:24;;;;;;;17.80;9.70;;;;;;;5.16;100.00;100581.19;6171416;28;20042;-89
2022/12/20 03:38:27;;;;;;;15.82;8.88;;;;;;;5.21;100.00;100571.50;6172625;28;20039;-89
2022/12/20 03:41:29;;;;;;;16.70;10.45;;;;;;;5.18;100.00;100575.06;6164009;28;20050;-89
2022/12/20 03:44:31;;;;;;;16.65;10.13;;;;;;;5.15;100.00;100584.69;6162314;28;20089;-89
2022/12/20 03:47:33;;;;;;;18.60;9.77;;;;;;;5.15;100.00;100577.00;6165339;28;20053;-89
2022/12/20 03:50:36;;;;;;;17.58;9.75;;;;;;;5.11;100.00;100578.88;6176366;28;20043;-89
2022/12/20 03:53:38;;;;;;;17.38;9.48;;;;;;;5.10;100.00;100591.81;6160994;28;20520;-89
2022/12/20 03:56:40;;;;;;;15.75;9.10;;;;;;;5.06;100.00;100585.19;6164113;28;20053;-89
2022/12/20 03:59:43;;;;;;;16.52;9.48;;;;;;;5.18;100.00;100592.22;6160095;28;20205;-89
2022/12/20 04:02:48;;;;;;;17.77;10.02;;;;;;;5.22;100.00;100588.56;6162541;28;20047;-89
2022/12/20 04:05:50;;;;;;;18.98;9.93;;;;;;;5.23;100.00;100597.09;6162133;28;20058;-89
2022/12/20 04:08:52;;;;;;;17.30;9.48;;;;;;;5.25;100.00;100596.09;6180651;28;20740;-89
2022/12/20 04:12:01;;;;;;;16.55;9.18;;;;;;;5.35;100.00;100606.69;6165352;28;20129;-89
2022/12/20 04:15:05;;;;;;;16.55;9.55;;;;;;;5.32;100.00;100622.25;6175424;28;20837;-89
2022/12/20 04:18:07;;;;;;;16.73;9.05;;;;;;;5.38;100.00;100621.91;6161151;28;20097;-89
2022/12/20 04:21:11;;;;;;;17.30;9.70;;;;;;;5.47;100.00;100600.03;6164728;28;20047;-89
2022/12/20 04:24:17;;;;;;;18.02;10.00;;;;;;;5.52;100.00;100585.19;6166053;28;20420;-89
2022/12/20 04:27:37;;;;;;;19.05;10.88;;;;;;;5.57;100.00;100586.56;6173832;28;20055;-89
2022/12/20 04:30:41;;;;;;;15.48;9.27;;;;;;;5.64;100.00;100589.63;6160681;28;20051;-89
2022/12/20 04:33:45;;;;;;;16.90;9.60;;;;;;;5.67;100.00;100581.75;6181251;28;20047;-89
2022/12/20 04:36:46;;;;;;;18.85;8.82;;;;;;;5.66;100.00;100584.38;6163985;28;20054;-89
2022/12/20 04:39:57;;;;;;;18.02;10.90;;;;;;;5.71;100.00;100582.38;6163433;28;20421;-89
2022/12/20 04:43:09;;;;;;;16.38;9.77;;;;;;;5.73;100.00;100591.66;6163501;28;20456;-89
2022/12/20 04:46:11;;;;;;;16.85;10.10;;;;;;;5.73;100.00;100589.09;6165008;28;20053;-89
2022/12/20 04:49:14;;;;;;;19.00;10.32;;;;;;;5.76;100.00;100606.91;6162403;28;20055;-89
2022/12/20 04:55:46;;;;;;;17.02;9.32;;;;;;;5.71;100.00;100593.47;6156822;28;20047;-89
2022/12/20 04:58:52;;;;;;;17.35;10.68;;;;;;;5.65;100.00;100605.84;6164969;28;20121;-89
2022/12/20 05:01:53;;;;;;;17.45;10.95;;;;;;;5.61;100.00;100611.19;6153668;28;20559;-89
2022/12/20 05:05:15;;;;;;;18.02;10.38;;;;;;;5.56;100.00;100596.91;6154895;28;20527;-89
2022/12/20 05:08:23;;;;;;;17.58;10.27;;;;;;;5.53;100.00;100599.66;6167826;28;20508;-89
2022/12/20 05:11:26;;;;;;;16.75;10.20;;;;;;;5.56;100.00;100594.34;6175706;28;20418;-89
2022/12/20 05:14:28;;;;;;;17.73;9.63;;;;;;;5.60;100.00;100596.66;6155986;28;20043;-89
2022/12/20 05:17:30;;;;;;;17.92;10.88;;;;;;;5.56;100.00;100589.22;6158848;28;20046;-89
2022/12/20 05:20:35;;;;;;;18.65;10.32;;;;;;;5.41;100.00;100583.22;6165235;28;20038;-89
2022/12/20 05:27:01;;;;;;;19.65;11.07;;;;;;;5.36;100.00;100570.63;6167773;28;20051;-89
2022/12/20 05:30:04;;;;;;;19.38;10.82;;;;;;;5.35;100.00;100581.00;6162385;28;20408;-89
2022/12/20 05:33:06;;;;;;;18.17;11.00;;;;;;;5.42;100.00;100584.88;6163352;28;20153;-89
2022/12/20 05:36:08;;;;;;;17.60;10.35;;;;;;;5.43;100.00;100599.38;6179215;28;20180;-90
2022/12/20 05:39:12;;;;;;;17.40;10.10;;;;;;;5.46;100.00;100585.53;6178960;28;20496;-89
2022/12/20 05:42:16;;;;;;;18.23;10.40;;;;;;;5.43;100.00;100586.53;6147257;28;20055;-89
2022/12/20 05:45:18;;;;;;;18.73;10.73;;;;;;;5.35;100.00;100583.56;6154866;28;20038;-89
2022/12/20 05:48:33;;;;;;;18.17;10.68;;;;;;;5.33;100.00;100585.41;6150867;28;20046;-89
2022/12/20 05:51:35;;;;;;;17.98;9.90;;;;;;;5.38;100.00;100588.53;6152201;28;20652;-89
2022/12/20 05:54:50;;;;;;;17.35;10.15;;;;;;;5.40;100.00;100584.13;6168209;28;20450;-89
2022/12/20 05:57:54;;;;;;;15.73;9.80;;;;;;;5.48;100.00;100576.81;6162733;28;20070;-89
2022/12/20 06:01:09;;;;;;;18.13;10.68;;;;;;;5.63;100.00;100577.69;6156034;28;20134;-89
2022/12/20 06:04:12;;;;;;;15.77;9.77;;;;;;;5.64;100.00;100570.81;6160166;28;20055;-89
2022/12/20 06:07:14;;;;;;;17.70;10.00;;;;;;;5.63;100.00;100575.13;6176917;28;20599;-89
2022/12/20 06:10:21;;;;;;;16.75;10.13;;;;;;;5.67;100.00;100563.78;6162082;28;20532;-89
2022/12/20 06:13:27;;;;;;;17.92;10.05;;;;;;;5.67;100.00;100565.50;6163631;28;20074;-89
2022/12/20 06:16:30;;;;;;;16.92;9.90;;;;;;;5.66;100.00;100567.22;6159209;28;20093;-89
2022/12/20 06:19:32;;;;;;;18.88;10.57;;;;;;;5.69;100.00;100567.09;6179272;28;20043;-89
2022/12/20 06:22:36;;;;;;;15.98;10.00;;;;;;;5.80;100.00;100554.41;6177816;28;20066;-89
2022/12/20 06:25:38;;;;;;;16.83;9.98;;;;;;;5.83;100.00;100561.94;6178380;28;20047;-89
2022/12/20 06:28:51;;;;;;;19.65;10.60;;;;;;;5.89;100.00;100536.81;6163112;28;20121;-89
2022/12/20 06:31:58;;;;;;;16.50;9.30;;;;;;;5.91;100.00;100537.56;6163923;28;20126;-89
2022/12/20 06:35:01;;;;;;;16.20;10.52;;;;;;;6.02;100.00;100533.47;6176994;28;20404;-89
2022/12/20 06:38:03;;;;;;;18.35;10.02;;;;;;;5.99;100.00;100525.13;6162564;28;20050;-89
2022/12/20 06:41:08;;;;;;;16.70;10.63;;;;;;;5.99;100.00;100518.25;6162372;28;20495;-89
2022/12/20 06:44:11;;;;;;;14.55;9.70;;;;;;;6.03;100.00;100513.72;6160571;28;20190;-89
2022/12/20 06:47:13;;;;;;;15.50;9.25;;;;;;;6.07;100.00;100533.19;6170290;28;20638;-89
2022/12/20 06:50:14;;;;;;;16.20;9.73;;;;;;;6.09;100.00;100520.22;6163389;28;20042;-89
2022/12/20 06:53:16;;;;;;;14.63;8.98;;;;;;;6.07;100.00;100519.53;6162773;28;20057;-89
2022/12/20 06:56:18;;;;;;;17.08;10.07;;;;;;;6.07;100.00;100510.06;6165923;28;20485;-89
2022/12/20 06:59:21;;;;;;;15.68;9.27;;;;;;;6.03;100.00;100511.97;6179583;28;20144;-89
2022/12/20 07:02:23;;;;;;;15.52;9.48;;;;;;;6.04;100.00;100517.97;6164587;28;20057;-89
2022/12/20 07:05:28;;;;;;;16.08;9.70;;;;;;;6.07;100.00;100520.34;6165629;28;20046;-89
2022/12/20 07:08:30;;;;;;;15.90;8.90;;;;;;;6.14;100.00;100521.63;6165391;28;20046;-89
2022/12/20 07:11:32;;;;;;;17.63;10.15;;;;;;;6.20;100.00;100523.00;6167662;28;20326;-89
2022/12/20 07:14:34;;;;;;;17.33;9.43;;;;;;;6.18;100.00;100528.22;6168870;28;20404;-89
2022/12/20 07:17:37;;;;;;;14.68;9.30;;;;;;;6.14;100.00;100500.25;6176460;28;20050;-90
2022/12/20 07:20:39;;;;;;;16.60;10.05;;;;;;;6.20;100.00;100502.44;6166608;28;20427;-89
2022/12/20 07:23:41;;;;;;;14.90;8.70;;;;;;;6.22;100.00;100516.84;6168511;28;20047;-89
2022/12/20 07:26:44;;;;;;;16.20;9.23;;;;;;;6.30;100.00;100518.13;6164844;28;20521;-89
2022/12/20 07:29:46;;;;;;;15.48;10.18;;;;;;;6.33;100.00;100515.34;6163141;28;20054;-89
2022/12/20 07:32:48;;;;;;;16.08;9.80;;;;;;;6.31;100.00;100497.47;6165830;28;20043;-89
2022/12/20 07:35:50;;;;;;;13.75;8.38;;;;;;;6.40;100.00;100517.44;6179296;28;20049;-89
2022/12/20 07:38:55;;;;;;;15.40;9.15;;;;;;;6.38;100.00;100509.00;6165682;28;20034;-89
2022/12/20 07:41:57;;;;;;;14.05;9.00;;;;;;;6.45;100.00;100505.13;6165828;28;20047;-89
2022/12/20 07:44:59;;;;;;;16.75;9.05;;;;;;;6.51;100.00;100500.53;6168525;28;20045;-89
2022/12/20 07:48:01;;;;;;;16.52;9.10;;;;;;;6.55;100.00;100502.81;6166867;28;20500;-90
2022/12/20 07:51:20;;;;;;;13.27;8.38;;;;;;;6.64;100.00;100519.44;6168295;28;20050;-89
2022/12/20 07:54:32;;;;;;;15.50;8.80;;;;;;;6.69;100.00;100499.38;6164858;28;20081;-89
2022/12/20 07:57:48;;;;;;;17.13;9.77;;;;;;;6.76;100.00;100489.53;6161749;28;20791;-90
2022/12/20 08:00:50;;;;;;;17.45;9.60;;;;;;;6.81;100.00;100492.66;6164542;28;20051;-89
2022/12/20 08:03:59;;;;;;;18.08;8.73;;;;;;;6.87;100.00;100494.81;6164917;28;20497;-90
2022/12/20 08:07:02;;;;;;;12.90;8.32;;;;;;;6.86;100.00;100488.84;6150212;28;20081;-89
2022/12/20 08:10:07;;;;;;;13.95;9.20;;;;;;;6.93;100.00;100485.88;6157251;28;20045;-90
2022/12/20 08:13:09;;;;;;;14.88;8.82;;;;;;;6.96;100.00;100476.22;6166167;28;20856;-90
2022/12/20 08:16:10;;;;;;;16.00;8.93;;;;;;;7.02;100.00;100470.66;6165925;28;20043;-90
2022/12/20 08:19:12;;;;;;;13.00;8.38;;;;;;;7.12;100.00;100471.72;6162425;28;20077;-90
2022/12/20 08:22:14;;;;;;;14.20;8.40;;;;;;;7.11;100.00;100457.19;6152983;28;20235;-90
2022/12/20 08:25:17;;;;;;;13.70;8.20;;;;;;;7.06;100.00;100451.53;6166255;28;20145;-89
2022/12/20 08:28:19;;;;;;;12.38;6.97;;;;;;;7.09;100.00;100455.66;6167529;28;20051;-89
2022/12/20 08:31:21;;;;;;;13.02;8.20;;;;;;;7.18;100.00;100443.91;6155161;28;20404;-90
2022/12/20 08:34:23;;;;;;;12.32;7.68;;;;;;;7.19;100.00;100445.59;6151932;28;20042;-89
2022/12/20 08:37:26;;;;;;;13.77;7.88;;;;;;;7.23;100.00;100457.31;6151394;28;20050;-89
2022/12/20 08:40:28;;;;;;;13.55;7.80;;;;;;;7.21;100.00;100438.59;6153030;28;20097;-89
2022/12/20 08:43:31;;;;;;;12.43;7.88;;;;;;;7.16;100.00;100444.03;6158984;28;20046;-90
2022/12/20 08:46:32;;;;;;;11.93;8.45;;;;;;;7.14;100.00;100433.00;6151956;28;20382;-90
2022/12/20 08:49:35;;;;;;;12.07;7.50;;;;;;;7.19;100.00;100440.44;6149719;28;20133;-90
2022/12/20 08:52:37;;;;;;;13.02;8.10;;;;;;;7.18;100.00;100443.91;6155265;28;20074;-90
2022/12/20 08:55:39;;;;;;;13.27;7.97;;;;;;;7.12;100.00;100445.97;6164182;28;20058;-90
2022/12/20 08:58:42;;;;;;;11.05;7.20;;;;;;;7.11;100.00;100439.19;6164213;28;20154;-89
2022/12/20 09:01:44;;;;;;;13.63;7.72;;;;;;;7.08;100.00;100444.53;6155001;28;20219;-90
2022/12/20 09:04:46;;;;;;;11.55;6.80;;;;;;;7.08;100.00;100443.69;6151720;28;20174;-90
2022/12/20 09:07:48;;;;;;;12.60;7.45;;;;;;;7.04;100.00;100443.09;6153919;28;20051;-89
2022/12/20 09:10:50;;;;;;;13.45;7.07;;;;;;;7.00;100.00;100463.97;6165413;28;20544;-90
2022/12/20 09:13:55;;;;;;;9.68;7.30;;;;;;;7.01;100.00;100466.47;6158134;28;20062;-90
2022/12/20 09:16:57;;;;;;;10.93;7.28;;;;;;;7.00;100.00;100471.69;6152112;28;20039;-89
2022/12/20 09:19:59;;;;;;;11.73;7.30;;;;;;;7.03;100.00;100449.16;6170485;28;20050;-89
2022/12/20 09:23:01;;;;;;;12.38;7.18;;;;;;;7.01;100.00;100452.78;6174234;28;20042;-89
2022/12/20 09:26:05;;;;;;;12.02;7.40;;;;;;;7.02;100.00;100444.13;6154156;28;20128;-89
2022/12/20 09:29:08;;;;;;;11.43;6.97;;;;;;;7.05;100.00;100428.47;6155858;28;20505;-89
2022/12/20 09:32:09;;;;;;;12.23;6.38;;;;;;;7.08;100.00;100423.97;6154881;28;20054;-89
2022/12/20 09:35:11;;;;;;;10.85;6.85;;;;;;;7.12;100.00;100411.69;6154918;28;20048;-89
2022/12/20 09:38:20;;;;;;;10.63;7.05;;;;;;;7.17;100.00;100413.97;6154349;28;20043;-89
2022/12/20 09:41:41;;;;;;;10.40;6.40;;;;;;;7.23;100.00;100431.56;6154679;28;20069;-89
2022/12/20 09:44:43;;;;;;;12.43;7.35;;;;;;;7.24;100.00;100422.94;6155195;28;20101;-89
2022/12/20 09:47:45;;;;;;;10.30;6.90;;;;;;;7.24;100.00;100425.50;6154638;28;20050;-89
2022/12/20 09:51:12;;;;;;;9.88;6.50;;;;;;;7.27;100.00;100417.56;6152957;28;20039;-89
2022/12/20 09:54:19;;;;;;;11.75;6.95;;;;;;;7.30;100.00;100418.22;6155578;28;20066;-89
2022/12/20 09:57:59;;;;;;;9.30;6.50;;;;;;;7.37;100.00;100415.22;6150904;28;21109;-89
2022/12/20 10:01:15;;;;;;;11.40;7.00;;;;;;;7.46;100.00;100412.84;6153774;28;20493;-89
2022/12/20 10:04:29;;;;;;;11.57;6.22;;;;;;;7.59;100.00;100409.44;6166015;28;20043;-89
2022/12/20 10:07:48;;;;;;;11.05;6.57;;;;;;;7.64;100.00;100402.22;6154819;28;20114;-89
2022/12/20 10:10:56;;;;;;;10.70;6.53;;;;;;;7.71;100.00;100411.16;6153924;28;20748;-89
2022/12/20 10:14:22;;;;;;;11.73;6.20;;;;;;;7.79;100.00;100408.88;6155545;28;20035;-88
2022/12/20 10:17:43;;;;;;;10.00;6.20;;;;;;;7.87;100.00;100391.13;6161452;28;20531;-89
2022/12/20 10:21:03;;;;;;;7.88;5.60;;;;;;;7.97;100.00;100383.56;6158447;28;20050;-89
2022/12/20 10:24:17;;;;;;;9.43;5.90;;;;;;;8.06;100.00;100370.03;6157356;28;20050;-88
2022/12/20 10:27:20;;;;;;;10.13;6.15;;;;;;;8.09;100.00;100358.69;6172766;28;20050;-89
2022/12/20 10:30:25;;;;;;;11.10;6.70;;;;;;;8.15;100.00;100353.94;6166268;28;20053;-89
2022/12/20 10:33:27;;;;;;;8.00;5.60;;;;;;;8.14;100.00;100367.72;6166266;28;20038;-89
2022/12/20 10:36:32;;;;;;;8.43;5.30;;;;;;;8.16;100.00;100365.06;6156152;28;20078;-89
2022/12/20 10:39:47;;;;;;;8.70;5.35;;;;;;;8.23;100.00;100357.72;6161181;28;20607;-89
2022/12/20 10:42:49;;;;;;;7.95;5.13;;;;;;;8.34;100.00;100358.56;6161347;28;20054;-90
2022/12/20 10:46:06;;;;;;;9.10;5.38;;;;;;;8.50;100.00;100367.81;6162858;28;20078;-94
2022/12/20 10:49:35;;;;;;;5.90;5.05;;;;;;;8.56;100.00;100363.00;6166998;28;20042;-89
2022/12/20 10:52:37;;;;;;;7.40;5.00;;;;;;;8.62;100.00;100351.41;6162051;28;20051;-89
2022/12/20 10:55:41;;;;;;;10.30;5.57;;;;;;;8.60;100.00;100358.47;6166902;28;20039;-89
2022/12/20 10:58:58;;;;;;;10.13;4.90;;;;;;;8.61;100.00;100342.03;6167134;28;20064;-89
2022/12/20 11:01:59;;;;;;;6.93;4.57;;;;;;;8.64;100.00;100336.66;6156067;28;20065;-89
2022/12/20 11:05:11;;;;;;;10.23;4.47;;;;;;;8.75;100.00;100320.41;6164191;28;20504;-89
2022/12/20 11:08:16;;;;;;;8.05;4.82;;;;;;;8.90;100.00;100323.59;6161215;28;20043;-89
2022/12/20 11:11:38;;;;;;;9.48;4.55;;;;;;;9.03;100.00;100313.97;6161467;28;20182;-89
2022/12/20 11:14:42;;;;;;;6.40;4.25;;;;;;;9.17;100.00;100318.91;6161525;28;20049;-89
2022/12/20 11:17:50;;;;;;;8.13;4.55;;;;;;;9.31;100.00;100317.00;6157946;28;20042;-89
2022/12/20 11:21:18;;;;;;;8.35;4.50;;;;;;;9.46;100.00;100308.06;6164634;28;20042;-89
2022/12/20 11:24:38;;;;;;;7.55;4.63;;;;;;;9.60;100.00;100301.84;6154531;28;20655;-89
2022/12/20 11:28:12;;;;;;;12.27;4.60;;;;;;;9.68;100.00;100309.81;6177675;28;20042;-88
2022/12/20 11:31:51;;;;;;;8.05;4.57;;;;;;;9.77;100.00;100303.09;6158025;28;20119;-89
2022/12/20 11:35:10;;;;;;;6.63;4.13;;;;;;;9.75;100.00;100294.66;6155870;28;20058;-89
2022/12/20 11:38:22;;;;;;;8.83;4.90;;;;;;;9.66;100.00;100302.19;6158687;28;20047;-89
2022/12/20 11:41:51;;;;;;;5.95;4.18;;;;;;;9.64;100.00;100304.06;6173674;28;20051;-89
2022/12/20 11:45:12;;;;;;;7.85;4.30;;;;;;;9.61;100.00;100300.88;6160362;28;20047;-89
2022/12/20 11:48:48;;;;;;;5.93;4.07;;;;;;;9.52;100.00;100304.22;6164778;28;20039;-89
2022/12/20 11:52:03;;;;;;;8.32;4.68;;;;;;;9.44;100.00;100302.19;6158588;28;20078;-89
2022/12/20 11:55:30;;;;;;;10.65;4.50;;;;;;;9.30;100.00;100292.13;6157471;28;20118;-89
2022/12/20 11:59:04;;;;;;;7.75;4.25;;;;;;;9.21;100.00;100304.81;6159500;28;20483;-89
2022/12/20 12:02:17;;;;;;;7.18;4.22;;;;;;;9.15;100.00;100300.13;6153748;28;20050;-89
2022/12/20 12:05:26;;;;;;;7.07;4.25;;;;;;;9.08;100.00;100298.94;6155446;28;20050;-89
2022/12/20 12:08:42;;;;;;;8.15;4.63;;;;;;;9.02;100.00;100294.25;6156148;28;20395;-89
2022/12/20 12:12:00;;;;;;;6.68;4.13;;;;;;;8.92;100.00;100295.88;6162034;28;21149;-89
2022/12/20 12:15:27;;;;;;;7.50;4.47;;;;;;;8.89;100.00;100276.28;6157080;28;20035;-89
2022/12/20 12:18:31;;;;;;;6.32;4.25;;;;;;;8.90;100.00;100284.88;6157143;28;20526;-89
2022/12/20 12:21:46;;;;;;;8.45;4.82;;;;;;;8.94;100.00;100283.69;6153676;28;20634;-89
2022/12/20 12:24:54;;;;;;;8.25;4.60;;;;;;;9.00;100.00;100270.31;6155085;28;20116;-89
2022/12/20 12:27:55;;;;;;;6.35;4.97;;;;;;;9.05;100.00;100266.44;6156732;28;20412;-88
2022/12/20 12:31:17;;;;;;;6.82;4.10;;;;;;;9.08;100.00;100257.63;6159900;28;20074;-89
2022/12/20 12:34:56;;;;;;;7.95;4.40;;;;;;;9.12;100.00;100261.63;6159319;28;20119;-89
2022/12/20 12:38:17;;;;;;;8.10;4.22;;;;;;;9.09;100.00;100266.19;6160155;28;20051;-89
2022/12/20 12:41:43;;;;;;;7.25;4.28;;;;;;;9.02;100.00;100261.50;6163502;28;20105;-89
2022/12/20 12:44:57;;;;;;;6.70;4.30;;;;;;;8.98;100.00;100265.25;6162336;28;20043;-89
2022/12/20 12:48:39;;;;;;;6.78;4.18;;;;;;;8.97;100.00;100258.47;6154489;28;20050;-89
2022/12/20 12:51:50;;;;;;;9.43;4.30;;;;;;;8.93;100.00;100245.91;6086329;29;20237;-89
2022/12/20 12:54:53;;;;;;;7.03;4.30;;;;;;;8.88;100.00;100235.13;6086901;29;20091;-89
2022/12/20 12:57:57;;;;;;;7.43;3.88;;;;;;;8.82;100.00;100233.84;6081893;29;20092;-89
2022/12/20 13:01:32;;;;;;;5.18;3.72;;;;;;;8.78;100.00;100224.66;6090345;29;20067;-89
2022/12/20 13:04:54;;;;;;;5.43;3.70;;;;;;;8.74;100.00;100216.31;6093096;29;20131;-89
2022/12/20 13:07:56;;;;;;;5.35;3.40;;;;;;;8.72;100.00;100227.69;6085267;29;20055;-89
2022/12/20 13:11:00;;;;;;;8.82;4.22;;;;;;;8.68;100.00;100224.53;6097887;29;20052;-89
2022/12/20 13:14:21;;;;;;;6.97;3.95;;;;;;;8.61;100.00;100231.09;6082989;29;20151;-89
2022/12/20 13:17:22;;;;;;;5.20;3.90;;;;;;;8.56;100.00;100231.44;6080766;29;20044;-89
2022/12/20 13:20:28;;;;;;;5.28;3.63;;;;;;;8.56;100.00;100228.06;6068627;29;20080;-89
2022/12/20 13:23:30;;;;;;;7.43;4.20;;;;;;;8.57;100.00;100238.28;6075636;29;20052;-89
2022/12/20 13:26:50;;;;;;;5.65;3.60;;;;;;;8.58;100.00;100228.75;6076127;28;20056;-89
2022/12/20 13:30:04;;;;;;;6.85;4.15;;;;;;;8.60;100.00;100230.28;6158055;28;20412;-89
2022/12/20 13:33:22;;;;;;;5.43;3.90;;;;;;;8.60;100.00;100227.72;6152844;28;20105;-89
2022/12/20 13:36:36;;;;;;;5.65;3.70;;;;;;;8.59;100.00;100231.22;6159208;28;20038;-89
2022/12/20 13:39:39;;;;;;;6.28;4.20;;;;;;;8.54;100.00;100232.50;6151956;28;20071;-89
2022/12/20 13:42:42;;;;;;;7.07;4.05;;;;;;;8.43;100.00;100230.72;6149578;28;20134;-89
2022/12/20 13:45:57;;;;;;;5.70;4.05;;;;;;;8.50;100.00;100226.75;6154297;28;20488;-89
2022/12/20 13:49:02;;;;;;;5.38;3.55;;;;;;;8.54;100.00;100217.03;6157895;28;20411;-89
2022/12/20 13:52:16;;;;;;;5.00;3.25;;;;;;;8.53;100.00;100217.97;6158563;28;20145;-89
2022/12/20 13:55:34;;;;;;;4.15;3.20;;;;;;;8.48;100.00;100228.63;6159889;28;20121;-89
2022/12/20 13:58:42;;;;;;;6.45;3.50;;;;;;;8.44;100.00;100211.72;6152356;28;20031;-89
2022/12/20 14:01:53;;;;;;;5.28;3.60;;;;;;;8.38;100.00;100219.91;6149749;28;20067;-89
2022/12/20 14:05:20;;;;;;;5.22;3.85;;;;;;;8.32;100.00;100236.66;6151405;28;20043;-89
2022/12/20 14:08:27;;;;;;;6.60;3.97;;;;;;;8.29;100.00;100226.56;6157082;28;20052;-89
2022/12/20 14:11:29;;;;;;;6.25;3.90;;;;;;;8.22;100.00;100227.94;6164977;28;20043;-89
2022/12/20 14:14:42;;;;;;;6.10;3.92;;;;;;;8.09;100.00;100234.94;6161503;28;20563;-90
2022/12/20 14:17:44;;;;;;;5.47;3.35;;;;;;;7.94;100.00;100229.16;6154601;28;20039;-89
2022/12/20 14:21:00;;;;;;;6.25;3.60;;;;;;;7.85;100.00;100238.41;6150396;28;20046;-90
2022/12/20 14:24:02;;;;;;;7.13;3.95;;;;;;;7.79;100.00;100232.84;6153453;28;20126;-89
2022/12/20 14:27:04;;;;;;;5.90;3.80;;;;;;;7.76;100.00;100244.19;6149767;28;20528;-90
2022/12/20 14:30:26;;;;;;;4.22;3.65;;;;;;;7.76;100.00;100239.84;6140918;28;20073;-90